createdAt,value
2018-02-03T00:00:58.050Z,1.50
2018-02-03T00:03:59.954Z,1.90
2018-02-03T00:07:01.863Z,1.33
2018-02-03T00:10:03.767Z,1.20
2018-02-03T00:13:05.755Z,2.93
2018-02-03T00:16:07.655Z,1.00
2018-02-03T00:19:09.546Z,1.40
2018-02-03T00:22:11.443Z,1.13
2018-02-03T00:25:13.351Z,1.00
2018-02-03T00:28:15.354Z,1.00
2018-02-03T00:31:17.254Z,1.43
2018-02-03T00:34:19.155Z,1.47
2018-02-03T00:37:21.051Z,1.17
2018-02-03T00:40:22.947Z,2.33
2018-02-03T00:43:25.107Z,1.53
2018-02-03T00:46:27.055Z,4.03
2018-02-03T00:49:28.952Z,1.23
2018-02-03T00:52:30.847Z,1.20
2018-02-03T00:55:32.751Z,1.03
2018-02-03T00:58:34.638Z,1.73
2018-02-03T01:01:36.543Z,1.57
2018-02-03T01:04:38.444Z,1.37
2018-02-03T01:07:40.339Z,1.33
2018-02-03T01:10:42.229Z,1.20
2018-02-03T01:13:44.120Z,1.20
2018-02-03T01:16:46.024Z,1.53
2018-02-03T01:19:47.922Z,1.30
2018-02-03T01:22:49.810Z,1.90
2018-02-03T01:25:51.711Z,1.17
2018-02-03T01:28:53.607Z,1.10
2018-02-03T01:31:55.490Z,0.80
2018-02-03T01:34:57.395Z,1.53
2018-02-03T01:37:59.278Z,1.20
2018-02-03T01:41:01.191Z,1.10
2018-02-03T01:44:03.119Z,1.80
2018-02-03T01:47:06.102Z,1.30
2018-02-03T01:50:07.998Z,1.60
2018-02-03T01:53:09.900Z,1.00
2018-02-03T01:56:11.887Z,1.20
2018-02-03T01:59:13.794Z,1.17
2018-02-03T02:02:15.783Z,1.90
2018-02-03T02:05:17.715Z,1.47
2018-02-03T02:08:19.670Z,1.10
2018-02-03T02:11:21.583Z,1.13
2018-02-03T02:14:23.474Z,1.00
2018-02-03T02:17:25.366Z,1.57
2018-02-03T02:20:27.262Z,1.10
2018-02-03T02:23:29.172Z,1.40
2018-02-03T02:26:31.066Z,1.27
2018-02-03T02:29:32.963Z,1.13
2018-02-03T02:32:34.966Z,1.10
2018-02-03T02:35:36.950Z,1.27
2018-02-03T02:38:38.859Z,1.07
2018-02-03T02:41:40.793Z,1.23
2018-02-03T02:44:42.983Z,1.40
2018-02-03T02:47:44.959Z,1.10
2018-02-03T02:50:46.863Z,1.20
2018-02-03T02:53:48.856Z,1.30
2018-02-03T02:56:50.750Z,1.30
2018-02-03T02:59:52.655Z,0.93
2018-02-03T03:02:54.547Z,1.10
2018-02-03T03:05:56.544Z,1.13
2018-02-03T03:08:58.426Z,1.10
2018-02-03T03:12:00.896Z,0.93
2018-02-03T03:15:02.850Z,1.27
2018-02-03T03:18:05.103Z,1.17
2018-02-03T03:21:07.063Z,1.40
2018-02-03T03:24:08.934Z,1.23
2018-02-03T03:27:10.844Z,1.03
2018-02-03T03:30:12.751Z,1.13
2018-02-03T03:33:14.638Z,1.57
2018-02-03T03:36:16.543Z,1.30
2018-02-03T03:39:18.440Z,1.10
2018-02-03T03:42:20.323Z,1.10
2018-02-03T03:45:22.530Z,1.50
2018-02-03T03:48:24.434Z,1.43
2018-02-03T03:51:26.343Z,1.17
2018-02-03T03:54:28.475Z,1.57
2018-02-03T03:57:30.435Z,1.33
2018-02-03T04:00:32.314Z,1.30
2018-02-03T04:03:34.223Z,1.40
2018-02-03T04:06:36.119Z,1.27
2018-02-03T04:09:38.020Z,1.40
2018-02-03T04:12:39.931Z,1.20
2018-02-03T04:15:41.923Z,1.13
2018-02-03T04:18:43.910Z,1.30
2018-02-03T04:21:45.815Z,1.60
2018-02-03T04:24:47.805Z,1.40
2018-02-03T04:27:49.713Z,2.37
2018-02-03T04:30:51.706Z,1.20
2018-02-03T04:33:53.586Z,1.07
2018-02-03T04:36:55.559Z,1.20
2018-02-03T04:39:57.499Z,1.20
2018-02-03T04:42:59.383Z,1.80
2018-02-03T04:46:01.296Z,1.30
2018-02-03T04:49:03.191Z,1.20
2018-02-03T04:52:05.088Z,1.40
2018-02-03T04:55:06.995Z,1.23
2018-02-03T04:58:08.895Z,2.50
2018-02-03T05:01:10.783Z,2.33
2018-02-03T05:04:12.678Z,1.20
2018-02-03T05:07:14.583Z,1.83
2018-02-03T05:10:16.477Z,0.87
2018-02-03T05:13:18.358Z,1.30
2018-02-03T05:16:20.272Z,1.30
2018-02-03T05:19:22.263Z,1.43
2018-02-03T05:22:24.263Z,1.53
2018-02-03T05:25:26.150Z,1.40
2018-02-03T05:28:28.051Z,1.10
2018-02-03T05:31:29.934Z,1.10
2018-02-03T05:34:31.851Z,1.10
2018-02-03T05:37:33.842Z,0.80
2018-02-03T05:40:35.750Z,1.10
2018-02-03T05:43:37.742Z,1.00
2018-02-03T05:46:39.639Z,1.33
2018-02-03T05:49:41.535Z,1.20
2018-02-03T05:52:43.439Z,1.10
2018-02-03T05:55:45.436Z,1.10
2018-02-03T05:58:47.327Z,0.93
2018-02-03T06:01:49.246Z,1.03
2018-02-03T06:04:51.223Z,0.80
2018-02-03T06:07:53.120Z,1.00
2018-02-03T06:10:55.106Z,1.30
2018-02-03T06:13:57.112Z,1.33
2018-02-03T06:16:58.990Z,1.00
2018-02-03T06:20:01.427Z,1.10
2018-02-03T06:23:03.431Z,0.90
2018-02-03T06:26:05.322Z,1.03
2018-02-03T06:29:07.223Z,1.10
2018-02-03T06:32:09.212Z,1.00
2018-02-03T06:35:11.126Z,0.97
2018-02-03T06:38:13.111Z,1.00
2018-02-03T06:41:14.999Z,1.10
2018-02-03T06:44:16.903Z,1.20
2018-02-03T06:47:18.795Z,1.20
2018-02-03T06:50:20.695Z,1.13
2018-02-03T06:53:22.645Z,1.20
2018-02-03T06:56:24.487Z,1.20
2018-02-03T06:59:26.387Z,1.13
2018-02-03T07:02:28.392Z,1.10
2018-02-03T07:05:30.383Z,1.20
2018-02-03T07:08:32.278Z,1.20
2018-02-03T07:11:34.191Z,1.00
2018-02-03T07:14:36.079Z,1.37
2018-02-03T07:17:37.992Z,1.30
2018-02-03T07:20:39.882Z,1.23
2018-02-03T07:23:41.791Z,1.30
2018-02-03T07:26:43.692Z,1.50
2018-02-03T07:29:45.602Z,1.13
2018-02-03T07:32:47.598Z,1.17
2018-02-03T07:35:49.611Z,1.60
2018-02-03T07:38:51.591Z,1.33
2018-02-03T07:41:53.487Z,1.70
2018-02-03T07:44:55.391Z,1.10
2018-02-03T07:47:57.391Z,1.30
2018-02-03T07:50:59.619Z,1.20
2018-02-03T07:54:01.599Z,1.00
2018-02-03T07:57:03.539Z,1.17
2018-02-03T08:00:05.509Z,0.90
2018-02-03T08:03:07.499Z,1.27
2018-02-03T08:06:09.424Z,1.00
2018-02-03T08:09:11.395Z,1.20
2018-02-03T08:12:13.330Z,1.33
2018-02-03T08:15:15.319Z,1.40
2018-02-03T08:18:17.216Z,1.10
2018-02-03T08:21:19.079Z,1.20
2018-02-03T08:24:21.007Z,1.57
2018-02-03T08:27:22.905Z,1.10
2018-02-03T08:30:24.795Z,1.53
2018-02-03T08:33:26.736Z,1.10
2018-02-03T08:36:28.702Z,1.43
2018-02-03T08:39:30.599Z,1.00
2018-02-03T08:42:32.507Z,1.10
2018-02-03T08:45:34.407Z,1.37
2018-02-03T08:48:36.307Z,1.90
2018-02-03T08:51:38.224Z,1.20
2018-02-03T08:54:40.150Z,3.77
2018-02-03T08:57:42.130Z,1.20
2018-02-03T09:00:44.091Z,1.10
2018-02-03T09:03:46.035Z,0.93
2018-02-03T09:06:47.931Z,1.07
2018-02-03T09:09:49.812Z,1.10
2018-02-03T09:12:51.727Z,1.23
2018-02-03T09:15:53.603Z,0.97
2018-02-03T09:18:55.514Z,1.20
2018-02-03T09:21:57.535Z,1.43
2018-02-03T09:24:59.851Z,1.27
2018-02-03T09:28:01.830Z,1.10
2018-02-03T09:31:03.713Z,1.17
2018-02-03T09:34:05.594Z,1.17
2018-02-03T09:37:07.543Z,1.33
2018-02-03T09:40:09.452Z,1.47
2018-02-03T09:43:11.354Z,1.00
2018-02-03T09:46:13.251Z,1.10
2018-02-03T09:49:15.247Z,1.53
2018-02-03T09:52:17.239Z,0.90
2018-02-03T09:55:19.131Z,1.20
2018-02-03T09:58:21.011Z,1.07
2018-02-03T10:01:22.926Z,1.20
2018-02-03T10:04:24.843Z,1.33
2018-02-03T10:07:26.870Z,1.13
2018-02-03T10:10:28.812Z,1.20
2018-02-03T10:13:30.957Z,1.17
2018-02-03T10:16:32.920Z,2.13
2018-02-03T10:19:34.818Z,1.70
2018-02-03T10:22:36.715Z,2.70
2018-02-03T10:25:38.611Z,1.82
2018-02-03T10:28:40.598Z,8.40
2018-02-03T10:31:42.499Z,3.83
2018-02-03T10:34:44.407Z,3.37
2018-02-03T10:37:46.299Z,1.43
2018-02-03T10:40:48.162Z,1.37
2018-02-03T10:43:50.060Z,3.50
2018-02-03T10:46:51.936Z,1.40
2018-02-03T10:49:53.805Z,2.77
2018-02-03T10:52:55.682Z,1.77
2018-02-03T10:55:57.567Z,2.20
2018-02-03T10:58:59.444Z,2.03
2018-02-03T11:02:01.341Z,2.43
2018-02-03T11:05:03.219Z,1.40
2018-02-03T11:08:05.111Z,3.77
2018-02-03T11:11:06.991Z,1.40
2018-02-03T11:14:08.871Z,3.93
2018-02-03T11:17:10.775Z,2.07
2018-02-03T11:20:12.713Z,6.50
2018-02-03T11:23:14.607Z,2.20
2018-02-03T11:26:16.625Z,1.20
2018-02-03T11:29:18.628Z,4.30
2018-02-03T11:32:21.083Z,1.50
2018-02-03T11:35:23.068Z,1.40
2018-02-03T11:38:24.979Z,1.60
2018-02-03T11:41:26.878Z,1.57
2018-02-03T11:44:28.988Z,4.33
2018-02-03T11:47:30.996Z,5.97
2018-02-03T11:50:32.974Z,2.10
2018-02-03T11:53:34.868Z,1.80
2018-02-03T11:56:36.774Z,1.30
2018-02-03T11:59:39.790Z,2.27
2018-02-03T12:02:41.687Z,2.43
2018-02-03T12:05:43.650Z,2.77
2018-02-03T12:08:45.583Z,4.27
2018-02-03T12:11:47.620Z,2.70
2018-02-03T12:14:49.584Z,2.40
2018-02-03T12:17:51.596Z,13.13
2018-02-03T12:20:53.492Z,7.33
2018-02-03T12:23:55.398Z,7.63
2018-02-03T12:26:57.523Z,9.00
2018-02-03T12:29:59.499Z,6.50
2018-02-03T12:33:01.403Z,6.83
2018-02-03T12:36:03.359Z,6.03
2018-02-03T12:39:05.281Z,6.87
2018-02-03T12:42:07.303Z,9.83
2018-02-03T12:45:09.272Z,5.90
2018-02-03T12:48:11.173Z,4.73
2018-02-03T12:51:13.076Z,3.90
2018-02-03T12:54:15.109Z,3.57
2018-02-03T12:57:17.087Z,3.50
2018-02-03T13:00:19.026Z,5.77
2018-02-03T13:03:20.987Z,4.40
2018-02-03T13:06:22.872Z,3.27
2018-02-03T13:09:24.791Z,3.87
2018-02-03T13:12:26.684Z,2.27
2018-02-03T13:15:28.620Z,2.70
2018-02-03T13:18:30.657Z,2.40
2018-02-03T13:21:32.587Z,1.93
2018-02-03T13:24:34.496Z,2.00
2018-02-03T13:27:36.478Z,2.87
2018-02-03T13:30:38.418Z,2.13
2018-02-03T13:33:40.315Z,2.80
2018-02-03T13:36:42.207Z,2.73
2018-02-03T13:39:44.207Z,3.10
2018-02-03T13:42:46.134Z,4.07
2018-02-03T13:45:48.039Z,1.60
2018-02-03T13:48:49.939Z,2.57
2018-02-03T13:51:51.958Z,4.63
2018-02-03T13:54:53.929Z,4.40
2018-02-03T13:57:55.835Z,1.90
2018-02-03T14:00:57.727Z,1.97
2018-02-03T14:03:59.628Z,3.87
2018-02-03T14:07:01.635Z,2.07
2018-02-03T14:10:03.623Z,3.70
2018-02-03T14:13:05.553Z,1.87
2018-02-03T14:16:07.480Z,2.27
2018-02-03T14:19:10.486Z,1.87
2018-02-03T14:22:12.410Z,3.50
2018-02-03T14:25:14.363Z,1.50
2018-02-03T14:28:16.359Z,3.83
2018-02-03T14:31:18.294Z,2.97
2018-02-03T14:34:20.311Z,1.77
2018-02-03T14:37:22.276Z,2.70
2018-02-03T14:40:24.223Z,2.80
2018-02-03T14:43:26.164Z,5.13
2018-02-03T14:46:28.136Z,4.03
2018-02-03T14:49:30.065Z,2.80
2018-02-03T14:52:31.982Z,3.57
2018-02-03T14:55:33.915Z,2.40
2018-02-03T14:58:35.840Z,3.50
2018-02-03T15:01:37.776Z,4.57
2018-02-03T15:04:39.711Z,1.50
2018-02-03T15:07:41.634Z,2.20
2018-02-03T15:10:43.574Z,3.13
2018-02-03T15:13:45.474Z,1.80
2018-02-03T15:16:47.362Z,4.93
2018-02-03T15:19:49.267Z,2.03
2018-02-03T15:22:51.228Z,1.90
2018-02-03T15:25:53.182Z,2.30
2018-02-03T15:28:55.074Z,3.30
2018-02-03T15:31:57.016Z,1.53
2018-02-03T15:34:58.987Z,1.33
2018-02-03T15:38:00.895Z,1.77
2018-02-03T15:41:02.828Z,2.30
2018-02-03T15:44:04.786Z,2.13
2018-02-03T15:47:06.679Z,1.80
2018-02-03T15:50:08.592Z,2.47
2018-02-03T15:53:10.508Z,2.57
2018-02-03T15:56:12.418Z,2.00
2018-02-03T15:59:14.327Z,2.13
2018-02-03T16:02:16.242Z,2.10
2018-02-03T16:05:18.134Z,1.73
2018-02-03T16:11:39.374Z,1.90
2018-02-03T16:18:05.314Z,1.60
2018-02-03T16:21:07.230Z,2.00
2018-02-03T16:24:09.207Z,1.37
2018-02-03T16:27:11.127Z,1.73
2018-02-03T16:30:13.128Z,6.00
2018-02-03T16:33:15.034Z,5.20
2018-02-03T16:36:16.939Z,5.37
2018-02-03T16:39:18.844Z,3.47
2018-02-03T16:42:20.715Z,2.13
2018-02-03T16:45:22.599Z,2.70
2018-02-03T16:48:24.494Z,1.77
2018-02-03T16:51:26.379Z,2.00
2018-02-03T16:54:28.258Z,1.67
2018-02-03T16:57:30.151Z,4.03
2018-02-03T17:00:32.027Z,2.73
2018-02-03T17:03:33.907Z,2.53
2018-02-03T17:06:35.838Z,5.37
2018-02-03T17:09:37.710Z,3.07
2018-02-03T17:12:39.658Z,1.50
2018-02-03T17:15:41.534Z,2.37
2018-02-03T17:18:43.418Z,3.03
2018-02-03T17:21:45.303Z,2.40
2018-02-03T17:24:47.180Z,3.07
2018-02-03T17:27:49.067Z,3.40
2018-02-03T17:30:50.951Z,2.60
2018-02-03T17:33:52.912Z,2.07
2018-02-03T17:36:58.957Z,2.23
2018-02-03T17:40:01.891Z,3.90
2018-02-03T17:43:03.778Z,2.20
2018-02-03T17:46:09.815Z,2.27
2018-02-03T17:49:11.687Z,3.30
2018-02-03T17:52:13.583Z,2.70
2018-02-03T17:55:19.645Z,1.93
2018-02-03T17:58:21.610Z,6.13
2018-02-03T18:01:23.579Z,2.47
2018-02-03T18:04:25.447Z,2.93
2018-02-03T18:07:27.334Z,8.13
2018-02-03T18:10:29.222Z,2.97
2018-02-03T18:13:31.158Z,2.63
2018-02-03T18:16:33.039Z,2.30
2018-02-03T18:19:34.994Z,2.33
2018-02-03T18:22:36.878Z,3.40
2018-02-03T18:25:38.766Z,3.83
2018-02-03T18:28:40.668Z,3.70
2018-02-03T18:31:42.535Z,2.67
2018-02-03T18:34:44.446Z,2.40
2018-02-03T18:37:46.351Z,4.57
2018-02-03T18:40:48.231Z,3.40
2018-02-03T18:43:50.114Z,2.13
2018-02-03T18:46:51.978Z,2.83
2018-02-03T18:49:53.859Z,2.50
2018-02-03T18:52:55.739Z,2.70
2018-02-03T18:55:57.634Z,2.60
2018-02-03T18:58:59.523Z,2.70
2018-02-03T19:02:01.407Z,3.57
2018-02-03T19:05:03.407Z,4.30
2018-02-03T19:08:05.291Z,2.07
2018-02-03T19:11:07.215Z,2.40
2018-02-03T19:14:09.099Z,8.13
2018-02-03T19:17:12.154Z,5.47
2018-02-03T19:20:14.155Z,2.93
2018-02-03T19:23:16.094Z,3.30
2018-02-03T19:26:18.654Z,2.33
2018-02-03T19:29:20.656Z,2.37
2018-02-03T19:32:22.578Z,2.27
2018-02-03T19:35:24.958Z,3.20
2018-02-03T19:38:26.972Z,2.27
2018-02-03T19:41:28.886Z,3.30
2018-02-03T19:44:31.056Z,3.13
2018-02-03T19:47:32.934Z,2.80
2018-02-03T19:50:34.871Z,2.47
2018-02-03T19:53:36.783Z,2.87
2018-02-03T19:56:38.758Z,2.60
2018-02-03T19:59:40.607Z,2.10
2018-02-03T20:02:42.515Z,3.03
2018-02-03T20:05:44.424Z,4.00
2018-02-03T20:08:46.298Z,2.43
2018-02-03T20:11:48.263Z,5.70
2018-02-03T20:14:50.159Z,4.43
2018-02-03T20:17:52.027Z,3.03
2018-02-03T20:20:53.916Z,2.87
2018-02-03T20:23:55.802Z,4.97
2018-02-03T20:26:57.691Z,3.50
2018-02-03T20:29:59.591Z,4.07
2018-02-03T20:33:01.467Z,3.17
2018-02-03T20:36:03.347Z,2.80
2018-02-03T20:39:05.246Z,3.00
2018-02-03T20:42:07.115Z,4.33
2018-02-03T20:45:08.999Z,2.87
2018-02-03T20:48:10.879Z,4.00
2018-02-03T20:51:12.807Z,2.77
2018-02-03T20:54:14.694Z,3.27
2018-02-03T20:57:16.591Z,2.83
2018-02-03T21:00:18.478Z,3.33
2018-02-03T21:03:20.370Z,3.40
2018-02-03T21:06:22.254Z,3.72
2018-02-03T21:09:24.132Z,5.65
2018-02-03T21:12:26.019Z,3.80
2018-02-03T21:15:27.990Z,5.27
2018-02-03T21:18:29.914Z,5.17
2018-02-03T21:21:31.817Z,3.97
2018-02-03T21:24:33.764Z,4.67
2018-02-03T21:27:35.674Z,3.67
2018-02-03T21:30:37.570Z,2.83
2018-02-03T21:33:39.522Z,3.83
2018-02-03T21:36:41.514Z,3.87
2018-02-03T21:39:43.427Z,3.37
2018-02-03T21:42:45.343Z,3.67
2018-02-03T21:45:48.271Z,3.23
2018-02-03T21:48:50.162Z,3.50
2018-02-03T21:51:52.102Z,4.43
2018-02-03T21:54:54.040Z,4.87
2018-02-03T21:57:56.016Z,2.87
2018-02-03T22:00:57.978Z,3.40
2018-02-03T22:03:59.907Z,3.67
2018-02-03T22:07:01.904Z,3.27
2018-02-03T22:10:03.859Z,4.33
2018-02-03T22:13:06.116Z,4.20
2018-02-03T22:16:08.276Z,3.67
2018-02-03T22:19:10.174Z,4.07
2018-02-03T22:22:12.199Z,3.47
2018-02-03T22:25:14.151Z,3.37
2018-02-03T22:28:16.063Z,3.83
2018-02-03T22:31:18.103Z,3.10
2018-02-03T22:34:20.209Z,3.33
2018-02-03T22:37:22.203Z,4.83
2018-02-03T22:40:24.522Z,3.87
2018-02-03T22:43:26.418Z,3.40
2018-02-03T22:46:28.382Z,4.20
2018-02-03T22:49:30.464Z,3.50
2018-02-03T22:52:32.474Z,3.33
2018-02-03T22:55:34.411Z,3.50
2018-02-03T22:58:36.342Z,3.57
2018-02-03T23:01:38.275Z,5.30
2018-02-03T23:04:40.175Z,3.73
2018-02-03T23:07:42.075Z,3.33
2018-02-03T23:10:44.123Z,4.63
2018-02-03T23:13:46.081Z,4.10
2018-02-03T23:16:47.922Z,3.93
2018-02-03T23:19:49.835Z,5.13
2018-02-03T23:22:51.817Z,4.37
2018-02-03T23:25:53.735Z,3.87
2018-02-03T23:28:55.731Z,3.43
2018-02-03T23:31:57.638Z,3.70
2018-02-03T23:34:59.543Z,4.10
2018-02-03T23:38:01.448Z,3.30
2018-02-03T23:41:03.363Z,3.43
2018-02-03T23:44:05.287Z,3.47
2018-02-03T23:47:07.190Z,3.23
2018-02-03T23:50:09.110Z,3.10
2018-02-03T23:53:11.003Z,3.67
2018-02-03T23:56:12.911Z,3.47
2018-02-03T23:59:14.800Z,3.33
